Time;durP1;ratioP1;P1;durP2;ratioP2;P2;SDS_P1;SDS_P2;PMS_P1;PMS_P2;Temp;Humidity;BMP_temperature;BMP_pressure;BME280_temperature;BME280_humidity;BME280_pressure;Samples;Min_cycle;Max_cycle;Signal;HPM_P1;HPM_P2
2022/08/30 00:02:55;;;;;;;12.27;8.82;;;14.40;99.90;;;;;;5091607;28;20043;-51
2022/08/30 00:05:21;;;;;;;12.70;8.60;;;14.40;99.90;;;;;;5091459;28;20046;-52
2022/08/30 00:07:47;;;;;;;11.00;8.90;;;14.30;99.90;;;;;;5091360;28;20072;-51
2022/08/30 00:10:14;;;;;;;15.75;10.27;;;14.30;99.90;;;;;;5083767;28;20052;-51
2022/08/30 00:12:42;;;;;;;13.00;9.45;;;14.30;99.90;;;;;;5071150;28;20032;-50
2022/08/30 00:15:09;;;;;;;17.10;10.55;;;14.30;99.90;;;;;;5071122;28;20082;-51
2022/08/30 00:17:35;;;;;;;14.00;9.93;;;14.20;99.90;;;;;;5070929;28;20029;-53
2022/08/30 00:20:03;;;;;;;15.63;9.80;;;14.20;99.90;;;;;;5076112;28;20016;-50
2022/08/30 00:22:29;;;;;;;11.48;10.27;;;14.20;99.90;;;;;;5090774;28;20091;-50
2022/08/30 00:24:55;;;;;;;11.60;9.32;;;14.20;99.90;;;;;;5090064;28;20020;-49
2022/08/30 00:27:21;;;;;;;11.75;8.98;;;14.20;99.90;;;;;;5091235;28;20028;-49
2022/08/30 00:29:46;;;;;;;15.15;9.82;;;14.20;99.90;;;;;;5087835;28;20025;-52
2022/08/30 00:32:12;;;;;;;18.92;10.65;;;14.10;99.90;;;;;;5070785;28;20107;-49
2022/08/30 00:34:38;;;;;;;15.90;10.18;;;14.00;99.90;;;;;;5070942;28;20033;-50
2022/08/30 00:37:03;;;;;;;12.90;9.68;;;14.00;99.90;;;;;;5070910;28;20028;-52
2022/08/30 00:39:29;;;;;;;13.57;10.40;;;14.00;99.90;;;;;;5070833;28;20025;-49
2022/08/30 00:41:55;;;;;;;15.98;9.48;;;13.90;99.90;;;;;;5090864;28;20031;-49
2022/08/30 00:44:20;;;;;;;11.18;9.60;;;13.80;99.90;;;;;;5090923;28;20410;-50
2022/08/30 00:46:46;;;;;;;13.98;9.23;;;13.90;99.90;;;;;;5090939;28;20056;-51
2022/08/30 00:49:12;;;;;;;18.50;10.27;;;13.90;99.90;;;;;;5094346;28;20020;-50
2022/08/30 00:51:40;;;;;;;15.45;10.15;;;13.90;99.90;;;;;;5076433;28;20422;-51
2022/08/30 00:54:07;;;;;;;14.57;9.98;;;13.90;99.90;;;;;;5074407;28;20024;-50
2022/08/30 00:56:34;;;;;;;11.80;9.82;;;13.90;99.90;;;;;;5074092;28;20085;-50
2022/08/30 00:59:01;;;;;;;13.57;10.52;;;13.80;99.90;;;;;;5074266;28;20017;-49
2022/08/30 01:01:28;;;;;;;11.13;9.93;;;13.80;99.90;;;;;;5089739;28;20106;-49
2022/08/30 01:03:54;;;;;;;12.07;10.18;;;13.70;99.90;;;;;;5094554;28;20024;-50
2022/08/30 01:06:20;;;;;;;14.50;10.68;;;13.80;99.90;;;;;;5094221;28;20364;-49
2022/08/30 01:08:46;;;;;;;15.60;11.40;;;13.70;99.90;;;;;;5094263;28;20059;-51
2022/08/30 01:11:16;;;;;;;17.17;10.50;;;13.80;99.90;;;;;;5080250;28;20064;-49
2022/08/30 01:13:42;;;;;;;13.90;9.82;;;13.80;99.90;;;;;;5072646;28;20025;-51
2022/08/30 01:16:09;;;;;;;12.88;11.55;;;13.80;99.90;;;;;;5073988;28;20032;-50
2022/08/30 01:18:35;;;;;;;16.55;11.10;;;13.80;99.90;;;;;;5075015;28;20032;-49
2022/08/30 01:21:24;;;;;;;13.98;10.88;;;13.80;99.90;;;;;;5073997;28;20337;-49
2022/08/30 01:23:52;;;;;;;12.07;9.70;;;13.80;99.90;;;;;;5074212;28;20017;-50
2022/08/30 01:26:19;;;;;;;12.18;9.90;;;13.80;99.90;;;;;;5073582;28;20039;-50
2022/08/30 01:28:49;;;;;;;16.83;9.95;;;13.70;99.90;;;;;;5092045;28;20348;-50
2022/08/30 01:31:15;;;;;;;16.83;9.90;;;13.70;99.90;;;;;;5093960;28;20024;-51
2022/08/30 01:33:41;;;;;;;16.15;9.57;;;13.70;99.90;;;;;;5092745;28;20024;-49
2022/08/30 01:36:11;;;;;;;13.73;10.23;;;13.70;99.90;;;;;;5093793;28;20349;-50
2022/08/30 01:38:46;;;;;;;11.18;9.52;;;13.60;99.90;;;;;;5077357;28;20031;-51
2022/08/30 01:41:18;;;;;;;20.92;10.63;;;13.60;99.90;;;;;;5073611;28;20024;-49
2022/08/30 01:43:44;;;;;;;9.50;8.50;;;13.60;99.90;;;;;;5076387;28;20016;-50
2022/08/30 01:46:11;;;;;;;17.73;9.45;;;13.50;99.90;;;;;;5093813;28;20048;-50
2022/08/30 01:48:39;;;;;;;10.93;9.82;;;13.50;99.90;;;;;;5093645;28;20056;-51
2022/08/30 01:51:05;;;;;;;13.57;10.48;;;13.40;99.90;;;;;;5093519;28;20024;-54
2022/08/30 01:53:31;;;;;;;16.75;8.98;;;13.50;99.90;;;;;;5092948;28;20675;-52
2022/08/30 01:55:57;;;;;;;10.93;9.73;;;13.40;99.90;;;;;;5071927;28;20412;-50
2022/08/30 01:58:23;;;;;;;18.38;9.85;;;13.40;99.90;;;;;;5073198;28;20102;-51
2022/08/30 02:00:50;;;;;;;10.57;9.02;;;13.40;99.90;;;;;;5072520;28;20009;-50
2022/08/30 02:03:15;;;;;;;9.70;8.75;;;13.40;99.90;;;;;;5072987;28;20035;-49
2022/08/30 02:05:42;;;;;;;12.30;9.32;;;13.30;99.90;;;;;;5091158;28;20020;-49
2022/08/30 02:08:08;;;;;;;11.27;9.90;;;13.40;99.90;;;;;;5093203;28;20394;-49
2022/08/30 02:10:34;;;;;;;11.23;8.95;;;13.40;99.90;;;;;;5093083;28;20024;-51
2022/08/30 02:12:59;;;;;;;11.38;9.50;;;13.30;99.90;;;;;;5091976;28;20463;-50
2022/08/30 02:15:25;;;;;;;14.65;9.45;;;13.40;99.90;;;;;;5077025;28;20040;-51
2022/08/30 02:17:51;;;;;;;16.73;10.23;;;13.30;99.90;;;;;;5072661;28;20036;-49
2022/08/30 02:20:17;;;;;;;12.73;9.90;;;13.20;99.90;;;;;;5072617;28;20103;-49
2022/08/30 02:22:43;;;;;;;14.13;10.27;;;13.20;99.90;;;;;;5072827;28;20024;-50
2022/08/30 02:25:09;;;;;;;12.70;10.30;;;13.10;99.90;;;;;;5085704;28;20024;-51
2022/08/30 02:27:35;;;;;;;10.77;9.20;;;13.20;99.90;;;;;;5075609;28;20024;-49
2022/08/30 02:30:01;;;;;;;11.57;10.38;;;13.20;99.90;;;;;;5072645;28;20031;-51
2022/08/30 02:32:26;;;;;;;10.45;9.35;;;13.20;99.90;;;;;;5072356;28;20479;-49
2022/08/30 02:34:53;;;;;;;16.27;10.60;;;13.20;99.90;;;;;;5082976;28;20555;-50
2022/08/30 02:37:19;;;;;;;11.32;10.05;;;13.10;99.90;;;;;;5092735;28;20027;-48
2022/08/30 02:39:45;;;;;;;20.75;10.52;;;13.10;99.90;;;;;;5092772;28;20104;-50
2022/08/30 02:42:10;;;;;;;16.75;10.55;;;13.10;99.90;;;;;;5092616;28;20024;-50
2022/08/30 02:44:36;;;;;;;14.10;9.77;;;13.10;99.90;;;;;;5083987;28;20036;-49
2022/08/30 02:47:02;;;;;;;13.20;10.18;;;13.10;99.90;;;;;;5072288;28;20021;-51
2022/08/30 02:49:28;;;;;;;13.63;9.20;;;13.10;99.90;;;;;;5072039;28;20035;-52
2022/08/30 02:51:53;;;;;;;14.90;9.55;;;13.10;99.90;;;;;;5072278;28;20025;-49
2022/08/30 02:54:19;;;;;;;12.20;9.48;;;13.00;99.90;;;;;;5077171;28;20024;-51
2022/08/30 02:56:46;;;;;;;14.60;10.13;;;13.00;99.90;;;;;;5091712;28;20032;-53
2022/08/30 02:59:13;;;;;;;13.98;9.88;;;12.90;99.90;;;;;;5092230;28;20499;-52
2022/08/30 03:01:39;;;;;;;14.10;10.48;;;12.90;99.90;;;;;;5090956;28;20035;-50
2022/08/30 03:04:05;;;;;;;13.70;9.63;;;12.90;99.90;;;;;;5088750;28;20549;-51
2022/08/30 03:06:31;;;;;;;11.10;9.90;;;13.00;99.90;;;;;;5071590;28;20035;-50
2022/08/30 03:08:57;;;;;;;10.95;9.75;;;12.90;99.90;;;;;;5071914;28;20037;-53
2022/08/30 03:11:22;;;;;;;13.82;11.30;;;12.90;99.90;;;;;;5071560;28;20083;-51
2022/08/30 03:13:48;;;;;;;16.90;11.45;;;12.90;99.90;;;;;;5072350;28;20017;-50
2022/08/30 03:16:14;;;;;;;15.30;10.55;;;12.90;99.90;;;;;;5091761;28;20509;-51
2022/08/30 03:18:42;;;;;;;11.77;10.00;;;12.90;99.90;;;;;;5092073;28;20024;-50
2022/08/30 03:21:13;;;;;;;15.65;10.45;;;12.90;99.90;;;;;;5090655;28;20455;-51
2022/08/30 03:23:39;;;;;;;19.13;11.23;;;12.80;99.90;;;;;;5092034;28;20025;-51
2022/08/30 03:26:06;;;;;;;18.10;11.38;;;12.80;99.90;;;;;;5072043;28;20024;-51
2022/08/30 03:28:32;;;;;;;14.93;10.23;;;12.80;99.90;;;;;;5071595;28;20056;-49
2022/08/30 03:30:58;;;;;;;19.70;10.65;;;12.80;99.90;;;;;;5071697;28;20420;-50
2022/08/30 03:33:23;;;;;;;23.45;9.93;;;12.80;99.90;;;;;;5071354;28;20126;-49
2022/08/30 03:35:50;;;;;;;14.70;9.32;;;12.80;99.90;;;;;;5088500;28;20049;-54
2022/08/30 03:38:16;;;;;;;18.83;10.55;;;12.80;99.90;;;;;;5091447;28;20444;-51
2022/08/30 03:40:42;;;;;;;20.10;11.00;;;12.80;99.90;;;;;;5091800;28;20058;-51
2022/08/30 03:43:08;;;;;;;12.00;10.02;;;12.80;99.90;;;;;;5091769;28;20024;-51
2022/08/30 03:45:33;;;;;;;12.35;10.27;;;12.70;99.90;;;;;;5076591;28;20611;-52
2022/08/30 03:48:01;;;;;;;15.82;9.68;;;12.70;99.90;;;;;;5071544;28;20387;-51
2022/08/30 03:50:27;;;;;;;14.55;10.05;;;12.70;99.90;;;;;;5071319;28;20117;-52
2022/08/30 03:52:53;;;;;;;11.63;10.52;;;12.70;99.90;;;;;;5071369;28;20013;-52
2022/08/30 03:55:19;;;;;;;14.10;9.45;;;12.70;99.90;;;;;;5083420;28;20070;-48
2022/08/30 03:57:45;;;;;;;12.80;10.43;;;12.70;99.90;;;;;;5091353;28;20052;-49
2022/08/30 04:00:13;;;;;;;17.80;11.13;;;12.70;99.90;;;;;;5091540;28;20490;-54
2022/08/30 04:02:39;;;;;;;12.65;10.70;;;12.70;99.90;;;;;;5091485;28;20023;-50
2022/08/30 04:05:05;;;;;;;12.75;9.35;;;12.70;99.90;;;;;;5080870;28;20029;-53
2022/08/30 04:07:31;;;;;;;15.93;9.98;;;12.60;99.90;;;;;;5070947;28;20111;-49
2022/08/30 04:09:57;;;;;;;12.55;9.25;;;12.60;99.90;;;;;;5071282;28;20120;-50
2022/08/30 04:12:41;;;;;;;12.38;10.20;;;12.70;99.90;;;;;;5071157;28;20033;-54
2022/08/30 04:15:09;;;;;;;15.13;10.05;;;12.60;99.90;;;;;;5081299;28;20383;-51
2022/08/30 04:17:35;;;;;;;20.25;11.13;;;12.60;99.90;;;;;;5090981;28;20042;-51
2022/08/30 04:20:00;;;;;;;11.55;10.13;;;12.60;99.90;;;;;;5091364;28;20062;-51
2022/08/30 04:22:26;;;;;;;12.38;10.18;;;12.60;99.90;;;;;;5092017;28;20103;-51
2022/08/30 04:24:52;;;;;;;11.38;9.82;;;12.60;99.90;;;;;;5085824;28;20426;-51
2022/08/30 04:27:19;;;;;;;13.48;10.07;;;12.60;99.90;;;;;;5074858;28;20364;-53
2022/08/30 04:29:46;;;;;;;15.60;10.15;;;12.60;99.90;;;;;;5074829;28;20059;-48
2022/08/30 04:32:11;;;;;;;11.82;8.95;;;12.60;99.90;;;;;;5073512;28;20036;-52
2022/08/30 04:34:37;;;;;;;14.00;8.85;;;12.50;99.90;;;;;;5080568;28;20391;-50
2022/08/30 04:37:03;;;;;;;15.02;9.07;;;12.60;99.90;;;;;;5094901;28;20032;-51
2022/08/30 04:39:29;;;;;;;11.02;8.35;;;12.60;99.90;;;;;;5094752;28;20020;-53
2022/08/30 04:41:56;;;;;;;10.25;9.25;;;12.60;99.90;;;;;;5093610;28;20020;-54
2022/08/30 04:44:22;;;;;;;15.18;10.27;;;12.60;99.90;;;;;;5091032;28;20033;-54
2022/08/30 04:46:48;;;;;;;12.90;9.18;;;12.60;99.90;;;;;;5074718;28;20028;-51
2022/08/30 04:49:13;;;;;;;14.02;9.95;;;12.60;99.90;;;;;;5074536;28;20035;-50
2022/08/30 04:51:39;;;;;;;16.95;11.10;;;12.70;99.90;;;;;;5074242;28;20036;-52
2022/08/30 04:54:05;;;;;;;16.30;9.00;;;12.70;99.90;;;;;;5075437;28;20098;-48
2022/08/30 04:56:32;;;;;;;10.77;9.68;;;12.70;99.90;;;;;;5094164;28;20663;-50
2022/08/30 04:58:58;;;;;;;10.25;9.18;;;12.80;99.90;;;;;;5094596;28;20073;-49
2022/08/30 05:01:29;;;;;;;15.00;11.02;;;12.90;99.90;;;;;;5094307;28;20021;-52
2022/08/30 05:03:55;;;;;;;19.98;11.45;;;12.90;99.90;;;;;;5093869;28;20085;-49
2022/08/30 05:06:23;;;;;;;23.80;13.43;;;13.00;99.90;;;;;;5072292;28;20479;-51
2022/08/30 05:08:51;;;;;;;14.25;11.82;;;13.00;99.90;;;;;;5093251;28;20109;-50
2022/08/30 05:11:17;;;;;;;16.63;11.23;;;13.10;99.90;;;;;;5092239;28;20016;-50
2022/08/30 05:13:45;;;;;;;13.35;11.73;;;13.10;99.90;;;;;;5089924;28;20028;-52
2022/08/30 05:16:16;;;;;;;18.17;12.02;;;13.10;99.90;;;;;;5072631;28;20379;-50
2022/08/30 05:18:51;;;;;;;12.70;10.95;;;13.30;99.90;;;;;;5070733;28;20013;-52
2022/08/30 05:21:20;;;;;;;15.25;11.57;;;13.30;99.90;;;;;;5070882;28;20077;-52
2022/08/30 05:23:46;;;;;;;19.40;10.20;;;13.50;99.90;;;;;;5071174;28;20115;-49
2022/08/30 05:26:15;;;;;;;11.70;9.30;;;13.50;99.90;;;;;;5088771;28;20032;-52
2022/08/30 05:28:41;;;;;;;10.48;9.45;;;13.50;99.90;;;;;;5091260;28;20442;-49
2022/08/30 05:31:20;;;;;;;10.23;8.68;;;13.60;99.90;;;;;;5091302;28;20359;-48
2022/08/30 05:33:47;;;;;;;9.93;8.73;;;13.70;99.90;;;;;;5090177;28;20496;-49
2022/08/30 05:36:14;;;;;;;12.68;10.90;;;13.80;99.90;;;;;;5074958;28;20495;-48
2022/08/30 05:38:41;;;;;;;13.52;9.98;;;13.80;99.90;;;;;;5072428;28;20020;-50
2022/08/30 05:41:07;;;;;;;13.00;10.68;;;13.80;99.90;;;;;;5072221;28;20627;-49
2022/08/30 05:43:33;;;;;;;11.75;10.40;;;13.90;99.90;;;;;;5072195;28;20032;-49
2022/08/30 05:46:05;;;;;;;11.85;9.48;;;14.00;99.90;;;;;;5087881;28;20070;-50
2022/08/30 05:48:32;;;;;;;11.23;10.02;;;14.10;99.90;;;;;;5092267;28;20031;-49
2022/08/30 05:51:07;;;;;;;16.83;11.43;;;14.20;99.90;;;;;;5092244;28;20115;-50
2022/08/30 05:53:33;;;;;;;17.75;12.65;;;14.40;99.90;;;;;;5092199;28;20032;-50
2022/08/30 05:56:04;;;;;;;16.92;11.68;;;14.50;99.90;;;;;;5076291;28;20024;-52
2022/08/30 05:58:30;;;;;;;16.23;13.07;;;14.50;99.90;;;;;;5071783;28;20059;-50
2022/08/30 06:00:56;;;;;;;14.43;11.65;;;14.70;99.90;;;;;;5072043;28;20013;-48
2022/08/30 06:03:22;;;;;;;19.42;11.88;;;14.80;99.90;;;;;;5071647;28;20094;-49
2022/08/30 06:05:48;;;;;;;13.00;11.55;;;14.90;99.90;;;;;;5085538;28;20036;-49
2022/08/30 06:08:14;;;;;;;12.93;9.75;;;15.10;99.90;;;;;;5091628;28;20103;-50
2022/08/30 06:10:39;;;;;;;14.77;11.18;;;15.30;99.90;;;;;;5092223;28;20376;-49
2022/08/30 06:13:05;;;;;;;15.95;10.57;;;15.40;99.90;;;;;;5091941;28;20036;-49
2022/08/30 06:15:31;;;;;;;11.88;10.55;;;15.50;99.90;;;;;;5079993;28;20696;-50
2022/08/30 06:17:56;;;;;;;12.48;10.93;;;15.50;99.90;;;;;;5071502;28;20020;-49
2022/08/30 06:20:22;;;;;;;17.90;11.68;;;15.60;99.90;;;;;;5071378;28;20020;-50
2022/08/30 06:22:48;;;;;;;13.27;11.95;;;15.80;99.90;;;;;;5071632;28;20024;-49
2022/08/30 06:25:15;;;;;;;13.30;11.90;;;15.90;99.90;;;;;;5079720;28;20449;-51
2022/08/30 06:27:41;;;;;;;12.30;10.93;;;16.10;99.90;;;;;;5091687;28;20055;-49
2022/08/30 06:30:09;;;;;;;11.90;10.65;;;16.10;99.90;;;;;;5092126;28;20071;-48
2022/08/30 06:32:36;;;;;;;14.93;13.30;;;16.20;99.90;;;;;;5091363;28;20028;-50
2022/08/30 06:35:02;;;;;;;18.95;13.90;;;16.30;99.90;;;;;;5084679;28;20035;-49
2022/08/30 06:37:28;;;;;;;16.05;14.35;;;16.40;99.90;;;;;;5070906;28;20020;-51
2022/08/30 06:39:56;;;;;;;23.50;16.77;;;16.50;99.90;;;;;;5071479;28;20081;-51
2022/08/30 06:42:23;;;;;;;17.73;14.57;;;16.70;99.90;;;;;;5070876;28;20062;-49
2022/08/30 06:44:48;;;;;;;20.25;16.05;;;16.80;99.90;;;;;;5074960;28;20012;-50
2022/08/30 06:47:14;;;;;;;24.67;15.93;;;16.90;99.90;;;;;;5090492;28;20024;-50
2022/08/30 06:49:40;;;;;;;18.77;16.08;;;17.10;99.90;;;;;;5091154;28;20029;-49
2022/08/30 06:52:05;;;;;;;27.33;15.30;;;17.20;99.90;;;;;;5091113;28;20074;-50
2022/08/30 06:54:31;;;;;;;18.02;15.65;;;17.30;99.90;;;;;;5089501;28;20085;-52
2022/08/30 06:56:56;;;;;;;23.55;16.73;;;17.40;99.90;;;;;;5070668;28;20020;-50
2022/08/30 06:59:22;;;;;;;17.23;15.35;;;17.60;99.90;;;;;;5070834;28;20028;-50
2022/08/30 07:01:48;;;;;;;22.38;15.38;;;17.70;99.90;;;;;;5070657;28;20385;-50
2022/08/30 07:04:14;;;;;;;18.80;15.85;;;17.70;99.90;;;;;;5070496;28;20464;-50
2022/08/30 07:06:39;;;;;;;17.98;14.60;;;17.90;99.90;;;;;;5089063;28;20047;-49
2022/08/30 07:09:05;;;;;;;16.75;14.98;;;18.00;99.90;;;;;;5090895;28;20107;-51
2022/08/30 07:11:34;;;;;;;24.40;16.73;;;18.00;99.90;;;;;;5090778;28;20556;-52
2022/08/30 07:14:01;;;;;;;19.40;13.20;;;18.20;99.90;;;;;;5090806;28;20024;-53
2022/08/30 07:16:27;;;;;;;18.63;14.68;;;18.30;99.90;;;;;;5073567;28;20036;-50
2022/08/30 07:18:55;;;;;;;24.08;13.38;;;18.50;99.90;;;;;;5070478;28;20028;-50
2022/08/30 07:21:27;;;;;;;17.27;13.90;;;18.60;99.90;;;;;;5069075;28;20074;-51
2022/08/30 07:23:56;;;;;;;18.13;12.43;;;18.70;99.90;;;;;;5069240;28;20051;-49
2022/08/30 07:26:34;;;;;;;16.05;11.95;;;18.90;99.90;;;;;;5088384;28;20035;-49
2022/08/30 07:29:01;;;;;;;14.05;10.77;;;19.10;99.90;;;;;;5090690;28;20020;-50
2022/08/30 07:31:27;;;;;;;15.25;11.95;;;19.10;99.90;;;;;;5090460;28;20026;-50
2022/08/30 07:33:53;;;;;;;12.50;11.25;;;19.20;99.90;;;;;;5090558;28;20017;-50
2022/08/30 07:36:20;;;;;;;17.40;11.75;;;19.30;99.90;;;;;;5072440;28;20033;-49
2022/08/30 07:38:48;;;;;;;326.00;142.30;;;19.40;99.90;;;;;;5070283;28;20021;-49
2022/08/30 07:41:30;;;;;;;26.10;14.45;;;19.50;99.90;;;;;;5069896;28;20021;-51
2022/08/30 07:43:56;;;;;;;22.05;11.68;;;19.50;99.90;;;;;;5070343;28;20025;-48
2022/08/30 07:46:23;;;;;;;11.98;10.02;;;19.40;99.90;;;;;;5069958;28;20038;-49
2022/08/30 07:48:49;;;;;;;17.23;11.90;;;19.60;99.90;;;;;;5070234;28;20029;-50
2022/08/30 07:51:18;;;;;;;17.60;10.63;;;19.70;99.90;;;;;;5069894;28;20040;-51
2022/08/30 07:53:45;;;;;;;16.42;11.07;;;19.70;99.90;;;;;;5070117;28;20475;-50
2022/08/30 07:56:11;;;;;;;14.35;11.48;;;19.80;99.90;;;;;;5088143;28;20058;-51
2022/08/30 07:58:38;;;;;;;14.73;11.10;;;19.80;99.90;;;;;;5093081;28;20020;-51
2022/08/30 08:01:06;;;;;;;13.00;11.00;;;19.90;99.90;;;;;;5092681;28;20031;-52
2022/08/30 08:03:32;;;;;;;22.52;11.93;;;20.20;99.90;;;;;;5094189;28;20149;-53
2022/08/30 08:06:01;;;;;;;16.65;11.00;;;20.40;99.90;;;;;;5076370;28;20041;-51
2022/08/30 08:08:27;;;;;;;21.63;13.18;;;20.50;99.90;;;;;;5073618;28;20095;-54
2022/08/30 08:10:52;;;;;;;22.77;12.35;;;20.60;99.90;;;;;;5074218;28;20060;-49
2022/08/30 08:13:18;;;;;;;13.85;10.68;;;20.70;99.90;;;;;;5073867;28;20073;-51
2022/08/30 08:15:44;;;;;;;18.60;12.70;;;20.80;99.90;;;;;;5087945;28;20067;-53
2022/08/30 08:18:09;;;;;;;15.73;10.25;;;20.90;99.90;;;;;;5094044;28;20031;-50
2022/08/30 08:20:35;;;;;;;15.32;9.93;;;20.90;99.90;;;;;;5093736;28;20480;-50
2022/08/30 08:23:01;;;;;;;12.93;10.20;;;20.90;99.90;;;;;;5094034;28;20020;-51
2022/08/30 08:25:27;;;;;;;11.27;9.48;;;20.80;99.90;;;;;;5082237;28;20470;-49
2022/08/30 08:27:53;;;;;;;13.45;8.50;;;20.90;99.90;;;;;;5073806;28;20430;-52
2022/08/30 08:30:20;;;;;;;13.23;9.55;;;21.00;99.90;;;;;;5072258;28;20104;-52
2022/08/30 08:32:47;;;;;;;14.68;11.00;;;21.00;99.90;;;;;;5072450;28;20391;-50
2022/08/30 08:35:14;;;;;;;14.10;9.70;;;21.20;99.90;;;;;;5082353;28;20016;-50
2022/08/30 08:37:39;;;;;;;17.00;9.80;;;21.30;99.90;;;;;;5093768;28;20024;-52
2022/08/30 08:40:07;;;;;;;14.68;9.68;;;21.40;99.90;;;;;;5093465;28;20016;-51
2022/08/30 08:42:44;;;;;;;22.45;9.27;;;21.60;99.90;;;;;;5093459;28;20284;-49
2022/08/30 08:45:18;;;;;;;15.55;10.20;;;21.60;99.90;;;;;;5084801;28;20020;-49
2022/08/30 08:47:55;;;;;;;19.95;10.23;;;21.80;99.90;;;;;;5073412;28;20384;-54
2022/08/30 08:50:21;;;;;;;16.80;10.55;;;22.00;99.90;;;;;;5073115;28;20029;-52
2022/08/30 08:55:50;;;;;;;13.43;10.35;;;22.10;99.90;;;;;;5086717;28;20124;-49
2022/08/30 08:58:40;;;;;;;11.35;10.18;;;22.10;99.90;;;;;;5093136;28;20378;-49
2022/08/30 09:01:07;;;;;;;13.80;9.40;;;22.30;99.90;;;;;;5076797;28;20017;-50
2022/08/30 09:03:34;;;;;;;13.30;10.25;;;22.50;99.90;;;;;;5073940;28;20518;-52
2022/08/30 09:06:05;;;;;;;19.08;8.95;;;22.60;99.90;;;;;;5072982;28;20319;-48
2022/08/30 09:08:32;;;;;;;16.25;9.85;;;22.60;99.90;;;;;;5072285;28;20102;-51
2022/08/30 09:11:09;;;;;;;11.13;9.40;;;22.60;99.90;;;;;;5072669;28;20024;-49
2022/08/30 09:13:35;;;;;;;17.48;9.00;;;22.80;99.90;;;;;;5091870;28;20412;-51
2022/08/30 09:16:01;;;;;;;11.45;8.85;;;22.90;99.90;;;;;;5093027;28;20020;-52
2022/08/30 09:18:42;;;;;;;17.25;9.98;;;22.90;99.90;;;;;;5092876;28;20057;-51
2022/08/30 09:21:08;;;;;;;15.15;9.30;;;23.00;99.90;;;;;;5091589;28;20039;-51
2022/08/30 09:23:34;;;;;;;10.45;8.43;;;23.10;99.90;;;;;;5073937;28;20376;-50
2022/08/30 09:26:07;;;;;;;11.05;8.18;;;23.20;99.90;;;;;;5072768;28;20099;-50
2022/08/30 09:28:53;;;;;;;9.75;8.77;;;23.50;99.90;;;;;;5072460;28;20032;-51
2022/08/30 09:31:25;;;;;;;10.52;8.18;;;23.60;99.90;;;;;;5071092;28;20037;-52
2022/08/30 09:34:14;;;;;;;15.65;7.65;;;23.70;99.90;;;;;;5052330;28;20361;-50
2022/08/30 09:36:51;;;;;;;11.88;7.80;;;24.00;99.90;;;;;;5052308;28;20033;-50
2022/08/30 09:39:29;;;;;;;11.25;8.02;;;24.10;99.90;;;;;;5091415;28;20012;-53
2022/08/30 09:42:28;;;;;;;12.43;7.65;;;24.00;99.90;;;;;;5092640;28;20672;-50
2022/08/30 09:45:11;;;;;;;10.80;7.10;;;24.00;99.90;;;;;;5090370;28;20028;-50
2022/08/30 09:47:42;;;;;;;13.53;7.90;;;24.50;99.90;;;;;;5072235;28;20020;-51
2022/08/30 09:50:15;;;;;;;16.00;7.32;;;24.60;99.90;;;;;;5092110;28;20078;-50
2022/08/30 09:53:22;;;;;;;19.30;8.40;;;24.50;99.90;;;;;;5081086;28;20036;-51
2022/08/30 09:56:12;;;;;;;11.85;7.75;;;24.60;99.90;;;;;;5029238;28;20041;-54
2022/08/30 09:59:18;;;;;;;12.57;8.93;;;24.90;99.90;;;;;;5010054;28;20052;-54
2022/08/30 10:01:58;;;;;;;9.95;7.57;;;24.90;99.90;;;;;;5052959;28;20053;-53
2022/08/30 10:04:42;;;;;;;8.38;6.80;;;25.30;99.90;;;;;;5092306;28;20039;-49
2022/08/30 10:07:21;;;;;;;12.10;7.35;;;25.50;99.90;;;;;;5091787;28;20036;-52
2022/08/30 10:10:19;;;;;;;10.60;7.93;;;25.50;99.70;;;;;;5091886;28;20070;-50
2022/08/30 10:13:24;;;;;;;8.68;6.93;;;25.60;99.90;;;;;;5075458;28;20087;-50
2022/08/30 10:16:28;;;;;;;10.38;6.43;;;25.80;99.90;;;;;;5066677;28;20481;-51
2022/08/30 10:19:42;;;;;;;7.70;6.07;;;25.90;98.70;;;;;;5089867;28;20111;-50
2022/08/30 10:22:17;;;;;;;8.00;6.22;;;26.00;98.10;;;;;;5084306;28;20028;-52
2022/08/30 10:24:48;;;;;;;10.07;5.93;;;26.00;98.30;;;;;;5090699;28;20032;-50
2022/08/30 10:27:33;;;;;;;8.93;6.95;;;25.90;98.30;;;;;;5092563;28;20081;-50
2022/08/30 10:30:09;;;;;;;12.25;5.68;;;26.20;98.40;;;;;;5076990;28;20021;-51
2022/08/30 10:32:48;;;;;;;11.05;6.57;;;26.20;98.10;;;;;;5068752;28;20403;-50
2022/08/30 10:35:27;;;;;;;6.60;5.70;;;26.30;98.10;;;;;;5081282;28;20156;-49
2022/08/30 10:38:05;;;;;;;8.38;5.47;;;26.30;96.50;;;;;;5071393;28;20019;-50
2022/08/30 10:43:55;;;;;;;9.65;7.05;;;26.80;97.50;;;;;;5092538;28;20112;-51
2022/08/30 10:46:59;;;;;;;13.55;7.13;;;27.00;95.70;;;;;;5083859;28;20032;-49
2022/08/30 10:49:27;;;;;;;7.55;6.32;;;26.50;96.70;;;;;;5082873;28;20054;-49
2022/08/30 10:51:56;;;;;;;10.25;6.70;;;27.00;96.90;;;;;;5078738;28;20036;-49
2022/08/30 10:54:37;;;;;;;9.10;6.63;;;27.00;96.20;;;;;;5071937;28;20033;-49
2022/08/30 10:57:03;;;;;;;13.23;6.53;;;27.10;95.90;;;;;;5071941;28;20020;-50
2022/08/30 10:59:30;;;;;;;10.07;6.28;;;27.00;95.40;;;;;;5071882;28;20031;-51
2022/08/30 11:02:10;;;;;;;11.50;5.68;;;26.80;95.30;;;;;;5085310;28;20040;-50
2022/08/30 11:04:41;;;;;;;13.27;5.82;;;27.10;95.70;;;;;;5091992;28;20024;-51
2022/08/30 11:07:52;;;;;;;7.20;5.80;;;26.90;94.20;;;;;;5092061;28;20044;-49
2022/08/30 11:10:28;;;;;;;9.55;5.53;;;27.20;94.90;;;;;;5090319;28;20029;-49
2022/08/30 11:13:04;;;;;;;12.15;5.78;;;27.30;93.80;;;;;;5083372;28;20032;-52
2022/08/30 11:15:35;;;;;;;11.75;5.53;;;27.30;94.10;;;;;;5081785;28;20047;-49
2022/08/30 11:18:09;;;;;;;11.35;5.40;;;27.50;94.40;;;;;;5071663;28;20052;-50
2022/08/30 11:20:35;;;;;;;7.78;5.63;;;28.00;93.60;;;;;;5077279;28;20016;-50
2022/08/30 11:23:28;;;;;;;8.68;5.25;;;28.10;91.70;;;;;;5091744;28;20405;-50
2022/08/30 11:26:00;;;;;;;8.40;4.73;;;29.20;91.10;;;;;;5092010;28;20042;-52
2022/08/30 11:28:35;;;;;;;5.93;4.35;;;29.80;86.70;;;;;;5091643;28;20020;-54
2022/08/30 11:31:09;;;;;;;6.25;3.95;;;30.40;84.70;;;;;;5090947;28;20024;-49
2022/08/30 11:33:44;;;;;;;8.32;4.38;;;31.30;81.90;;;;;;5091246;28;20024;-51
2022/08/30 11:36:32;;;;;;;10.10;4.68;;;32.00;79.70;;;;;;5091575;28;20020;-51
2022/08/30 11:39:03;;;;;;;7.70;4.55;;;32.50;76.50;;;;;;5091477;28;20013;-52
2022/08/30 11:41:44;;;;;;;9.45;4.05;;;32.60;78.50;;;;;;5088090;28;20035;-51
2022/08/30 11:44:30;;;;;;;9.23;3.70;;;33.20;71.00;;;;;;5090840;28;20032;-54
2022/08/30 11:47:01;;;;;;;11.93;4.22;;;33.50;71.80;;;;;;5080054;28;20032;-54
2022/08/30 11:49:44;;;;;;;5.57;3.92;;;33.80;70.10;;;;;;5089779;28;20538;-52
2022/08/30 11:52:20;;;;;;;9.13;3.45;;;35.00;69.20;;;;;;5085115;28;20490;-53
2022/08/30 11:55:00;;;;;;;7.32;3.53;;;34.30;68.60;;;;;;5049677;28;20039;-52
2022/08/30 11:57:58;;;;;;;7.32;3.20;;;34.20;66.20;;;;;;5073249;28;20033;-53
2022/08/30 12:00:34;;;;;;;9.68;3.13;;;34.30;67.40;;;;;;5050430;28;20480;-51
2022/08/30 12:03:26;;;;;;;7.50;3.30;;;34.80;63.20;;;;;;5076653;28;20111;-53
2022/08/30 12:06:02;;;;;;;4.55;3.13;;;34.80;62.40;;;;;;5090795;28;20531;-50
2022/08/30 12:08:34;;;;;;;7.20;3.80;;;34.40;58.60;;;;;;5090885;28;20036;-52
2022/08/30 12:11:10;;;;;;;9.83;3.50;;;34.80;60.90;;;;;;5091263;28;20020;-55
2022/08/30 12:13:36;;;;;;;4.65;3.33;;;34.80;60.70;;;;;;5079673;28;20036;-52
2022/08/30 12:16:12;;;;;;;13.35;3.17;;;34.30;60.60;;;;;;5069611;28;20462;-53
2022/08/30 12:18:44;;;;;;;6.47;3.25;;;34.80;59.90;;;;;;5071221;28;20016;-52
2022/08/30 12:21:19;;;;;;;9.85;3.40;;;34.60;57.70;;;;;;5070921;28;20024;-54
2022/08/30 12:23:51;;;;;;;9.65;3.38;;;35.10;58.00;;;;;;5082777;28;20562;-52
2022/08/30 12:26:19;;;;;;;13.70;4.18;;;35.00;58.40;;;;;;5089947;28;20034;-54
2022/08/30 12:28:47;;;;;;;7.03;3.40;;;35.70;58.90;;;;;;5089781;28;20016;-51
2022/08/30 12:31:18;;;;;;;8.73;3.58;;;35.50;56.50;;;;;;5078341;28;20021;-51
2022/08/30 12:33:47;;;;;;;3.45;2.85;;;35.20;56.10;;;;;;5069898;28;20130;-52
2022/08/30 12:36:30;;;;;;;7.60;3.25;;;35.20;57.40;;;;;;5069066;28;20024;-50
2022/08/30 12:39:13;;;;;;;12.07;3.67;;;35.20;57.70;;;;;;5069744;28;20013;-50
2022/08/30 12:41:40;;;;;;;8.10;3.53;;;35.40;55.40;;;;;;5075845;28;20095;-52
2022/08/30 12:44:12;;;;;;;4.70;2.88;;;34.70;54.90;;;;;;5072363;28;20048;-51
2022/08/30 12:46:40;;;;;;;14.27;3.67;;;34.40;55.80;;;;;;5074577;28;20021;-53
2022/08/30 12:49:06;;;;;;;6.10;2.90;;;34.50;57.60;;;;;;5073968;28;20029;-50
2022/08/30 12:51:40;;;;;;;4.60;3.10;;;34.50;54.20;;;;;;5086491;28;20081;-54
2022/08/30 12:54:29;;;;;;;6.20;2.63;;;35.20;52.30;;;;;;5093556;28;20028;-53
2022/08/30 12:57:06;;;;;;;4.88;3.40;;;35.40;53.90;;;;;;5093322;28;20016;-54